Etusivu
METAR-TAF:

METAR-TAF

Lentoasemat :

Antonio B. Won Patin kansainvälinen lentoasema

Hagåtña, Guam, Yhdysvallat

Leveyspiiri: 13-29N, Pituuspiiri: 144-48E, korkeus merenpinnasta: 91 m

Tämänhetkinen sää

Tämä raportti tehtiin 37 minuuttia sitten, kello 11.54 UTC
tyyntä
Lämpötila 26°C
Kosteus 100%
Ilmanpaine 1012 hPa
Näkyvyys: 16.1 km
selkeää

METAR: PGUM 231154Z 00000KT 10SM CLR 26/26 A2988 RMK AO2 SLP110 60000 70094 T02560256 10278 20250 53003

Aika: 22:31 (12:31 UTC)

Sääennuste

Tämä raportti tehtiin 1 tunti ja 11 minuuttia sitten, kello 11.20 UTC
Ennuste voimassa 23. päivästä klo 12 UTC - 24. päivään klo 18 UTC
Tuuli 4 kn kaakosta
Näkyvyys: 10 km
Hajanaisia pilviä 1500 ft:n korkeudessa
Hajanaisia pilviä 3000 ft:n korkeudessa
Hajonneita pilviä 12000 ft:n korkeudessa
sadekuuroja näköpiirissä

TAF: PGUM 231120Z 2312/2418 14004KT P6SM VCSH SCT015 SCT030 BKN120

Säähavainnot ja -ennusteet yli 4000 lentoasemalta (METAR- ja TAF-raportit).

Käytössä olevat sääasemat on merkitty karttaan keltaisilla ja punaisilla pisteillä.

Aseta hiiri pisteen päälle nähdäksesi sääaseman nimen.

Klikkaa sitten nähdäksesi säähavainnot ja -ennusteet.

Kartan vaihtaminen: klikkaa mustalla rastilla varustettuja vihreitä pisteitä, niin voit zoomata sisään; viivalla varustettua vihreää pistettä, niin voit zoomata ulos tai vihreitä nuolia, niin pääset viereisille kartoille.


METAR-TAF: